Adapazari, Turkey

7:02 AM EET on March 02, 2015 (GMT +0200)
Topel Air Base | Change Station
CLOSE
Current Station
Airport
Location: Topel,
Elevation: 164 ft
Nearby Weather Stations

Elev 164 ft 40.74 °N, 30.08 °E | Updated 12 minutes ago

Mostly Cloudy
Mostly Cloudy
43 °F
Feels Like 43 °F
N
2
Wind Variable Wind from NE

Today
High -- | Low -- °F
--% Chance of Precip.
Yesterday
High -- | Low -- °F
Precip. -- in
6:31 AM 5:50 PM
Waxing Gibbous, 89% visible
Pressure 30.06 in
Visibility 2.5 miles
Clouds Scattered Clouds 1300 ft
Mostly Cloudy 2800 ft
Dew Point 41 °F
Humidity 93%
Rainfall 0.00 in
Snow Depth Not available.
UV 0 out of 12
Pollen Not available.
Air Quality Not available.
Flu Activity Not available.
METAR LTBQ 020450Z 04002KT 4000 BR SCT013 BKN028 06/05 Q1018 BECMG TL0600 6000

More Conditions Fewer Conditions

Pressure 30.06 in
Visibility 2.5 miles
Clouds Scattered Clouds 1300 ft
Mostly Cloudy 2800 ft
Dew Point 41 °F
Humidity 93%
Rainfall 0.00 in
Snow Depth Not available.
UV 0 out of 12
Pollen Not available.
Air Quality Not available.
Flu Activity Not available.
METAR LTBQ 020450Z 04002KT 4000 BR SCT013 BKN028 06/05 Q1018 BECMG TL0600 6000

More Conditions Fewer Conditions

10-Day Weather Forecast

Almanac

Astronomy

Mar. 02, 2015 Rise Set
Actual Time
Civil Twilight
Nautical Twilight
Astronomical Twilight
Moon
Length of Visible Light
Length of Day
Tomorrow will be .
, % of the Moon is Illuminated

Today's Extremes

Country Highs Country Lows

Community

WunderPhotos

Upload Photos

1,801,728 photos uploaded!

WunderBlogs® & News

Nearby

Air Quality

  Air Quality AQ Index Pollutant
Not available.

Snow Depth

Station Depth Elevation

Earthquake Activity

City Distance Mag. Time & Date
Minimum magnitude displayed is 2.5.

Coastal Water Temperatures

Place Temperature

Nearby Weather Stations